createdAt,value
2022-07-25T00:02:00.729Z,56.97
2022-07-25T00:04:29.876Z,57.03
2022-07-25T00:06:57.740Z,57.24
2022-07-25T00:09:25.746Z,57.32
2022-07-25T00:11:53.703Z,57.38
2022-07-25T00:14:21.555Z,57.37
2022-07-25T00:16:49.281Z,57.48
2022-07-25T00:19:17.684Z,57.59
2022-07-25T00:21:45.342Z,57.58
2022-07-25T00:24:13.216Z,57.69
2022-07-25T00:26:41.077Z,57.70
2022-07-25T00:29:09.129Z,57.76
2022-07-25T00:31:37.112Z,57.76
2022-07-25T00:34:05.163Z,57.92
2022-07-25T00:36:33.318Z,57.89
2022-07-25T00:39:01.054Z,57.86
2022-07-25T00:41:28.885Z,57.84
2022-07-25T00:43:56.760Z,58.00
2022-07-25T00:46:24.637Z,57.98
2022-07-25T00:48:52.397Z,58.08
2022-07-25T00:51:20.163Z,58.23
2022-07-25T00:53:47.767Z,58.21
2022-07-25T00:56:16.831Z,58.27
2022-07-25T00:58:45.130Z,58.24
2022-07-25T01:01:12.828Z,58.26
2022-07-25T01:03:40.660Z,58.33
2022-07-25T01:06:08.807Z,58.33
2022-07-25T01:08:37.276Z,58.39
2022-07-25T01:11:05.530Z,58.33
2022-07-25T01:13:34.235Z,58.44
2022-07-25T01:16:02.038Z,58.45
2022-07-25T01:18:29.995Z,58.50
2022-07-25T01:20:58.095Z,58.63
2022-07-25T01:23:26.010Z,58.82
2022-07-25T01:25:54.111Z,58.99
2022-07-25T01:28:21.675Z,59.05
2022-07-25T01:30:50.051Z,59.19
2022-07-25T01:33:21.422Z,59.27
2022-07-25T01:35:50.363Z,59.17
2022-07-25T01:38:18.017Z,59.08
2022-07-25T01:40:46.084Z,59.02
2022-07-25T01:43:13.781Z,59.08
2022-07-25T01:45:41.500Z,59.08
2022-07-25T01:48:09.393Z,59.06
2022-07-25T01:50:37.226Z,59.13
2022-07-25T01:53:05.047Z,59.15
2022-07-25T01:55:32.902Z,59.14
2022-07-25T01:58:00.985Z,59.13
2022-07-25T02:00:28.781Z,59.03
2022-07-25T02:03:10.572Z,58.96
2022-07-25T02:05:38.218Z,59.04
2022-07-25T02:08:06.214Z,59.23
2022-07-25T02:10:33.805Z,59.33
2022-07-25T02:13:01.805Z,59.40
2022-07-25T02:15:29.463Z,59.45
2022-07-25T02:17:57.064Z,59.41
2022-07-25T02:20:24.759Z,59.57
2022-07-25T02:22:52.635Z,59.58
2022-07-25T02:25:20.527Z,59.75
2022-07-25T02:27:48.006Z,59.77
2022-07-25T02:30:15.843Z,59.71
2022-07-25T02:32:43.463Z,59.79
2022-07-25T02:35:13.089Z,59.85
2022-07-25T02:37:41.432Z,59.99
2022-07-25T02:40:10.404Z,59.88
2022-07-25T02:42:38.741Z,59.94
2022-07-25T02:45:08.047Z,60.06
2022-07-25T02:47:35.650Z,60.13
2022-07-25T02:50:04.391Z,60.05
2022-07-25T02:52:32.278Z,60.09
2022-07-25T02:55:00.122Z,60.17
2022-07-25T02:57:27.919Z,60.13
2022-07-25T02:59:55.609Z,60.19
2022-07-25T03:02:23.271Z,60.28
2022-07-25T03:04:50.930Z,60.38
2022-07-25T03:07:18.776Z,60.44
2022-07-25T03:09:46.199Z,60.59
2022-07-25T03:12:13.986Z,60.68
2022-07-25T03:14:41.518Z,60.81
2022-07-25T03:17:09.324Z,60.78
2022-07-25T03:19:37.054Z,60.84
2022-07-25T03:22:04.714Z,60.65
2022-07-25T03:24:32.394Z,60.68
2022-07-25T03:26:59.967Z,60.56
2022-07-25T03:29:28.056Z,60.40
2022-07-25T03:31:55.958Z,60.24
2022-07-25T03:34:23.822Z,60.10
2022-07-25T03:36:51.340Z,59.94
2022-07-25T03:39:20.143Z,59.87
2022-07-25T03:41:47.924Z,59.85
2022-07-25T03:44:15.570Z,59.83
2022-07-25T03:46:43.360Z,59.80
2022-07-25T03:49:11.144Z,59.79
2022-07-25T03:51:38.894Z,59.77
2022-07-25T03:54:08.446Z,59.78
2022-07-25T03:56:44.243Z,59.84
2022-07-25T03:59:15.702Z,59.86
2022-07-25T04:01:45.093Z,59.95
2022-07-25T04:04:13.301Z,60.02
2022-07-25T04:06:41.169Z,59.99
2022-07-25T04:09:13.373Z,59.95
2022-07-25T04:11:41.116Z,59.91
2022-07-25T04:14:09.249Z,59.94
2022-07-25T04:16:37.589Z,59.93
2022-07-25T04:19:07.784Z,59.84
2022-07-25T04:21:36.386Z,59.66
2022-07-25T04:24:04.778Z,59.55
2022-07-25T04:26:32.740Z,59.43
2022-07-25T04:29:02.020Z,59.38
2022-07-25T04:31:30.018Z,59.35
2022-07-25T04:33:57.663Z,59.31
2022-07-25T04:36:26.128Z,59.38
2022-07-25T04:38:53.752Z,59.48
2022-07-25T04:41:21.890Z,59.51
2022-07-25T04:43:49.449Z,59.51
2022-07-25T04:46:21.219Z,59.58
2022-07-25T04:48:49.727Z,59.72
2022-07-25T04:51:18.651Z,59.74
2022-07-25T04:53:46.675Z,59.84
2022-07-25T04:56:14.279Z,59.79
2022-07-25T04:58:42.212Z,59.90
2022-07-25T05:01:10.103Z,59.86
2022-07-25T05:03:37.731Z,59.67
2022-07-25T05:06:06.101Z,59.60
2022-07-25T05:08:33.900Z,59.64
2022-07-25T05:11:02.495Z,59.82
2022-07-25T05:13:30.233Z,59.87
2022-07-25T05:15:57.946Z,59.99
2022-07-25T05:18:25.792Z,59.76
2022-07-25T05:20:53.573Z,59.76
2022-07-25T05:23:22.043Z,59.39
2022-07-25T05:25:49.826Z,59.02
2022-07-25T05:28:19.089Z,58.66
2022-07-25T05:30:46.577Z,58.33
2022-07-25T05:33:14.436Z,57.96
2022-07-25T05:35:42.275Z,57.36
2022-07-25T05:38:09.862Z,57.05
2022-07-25T05:40:37.437Z,56.73
2022-07-25T05:43:05.154Z,56.40
2022-07-25T05:45:32.814Z,56.03
2022-07-25T05:48:00.516Z,55.69
2022-07-25T05:50:28.265Z,55.50
2022-07-25T05:52:56.406Z,55.36
2022-07-25T05:55:24.147Z,55.08
2022-07-25T05:57:51.921Z,54.98
2022-07-25T06:00:19.427Z,54.41
2022-07-25T06:02:47.202Z,54.38
2022-07-25T06:05:15.068Z,54.29
2022-07-25T06:07:42.831Z,54.36
2022-07-25T06:10:10.624Z,53.80
2022-07-25T06:12:38.299Z,53.60
2022-07-25T06:15:07.252Z,53.70
2022-07-25T06:17:36.754Z,53.31
2022-07-25T06:20:05.421Z,53.19
2022-07-25T06:22:33.358Z,52.88
2022-07-25T06:25:05.238Z,52.68
2022-07-25T06:27:32.920Z,52.36
2022-07-25T06:30:00.868Z,51.96
2022-07-25T06:32:28.589Z,52.09
2022-07-25T06:34:56.448Z,51.77
2022-07-25T06:37:24.000Z,51.56
2022-07-25T06:39:51.605Z,50.91
2022-07-25T06:42:19.703Z,51.23
2022-07-25T06:44:47.327Z,50.57
2022-07-25T06:47:15.346Z,49.96
2022-07-25T06:49:42.896Z,49.80
2022-07-25T06:52:10.521Z,49.67
2022-07-25T06:54:38.237Z,49.74
2022-07-25T06:57:05.889Z,49.53
2022-07-25T06:59:33.450Z,49.41
2022-07-25T07:02:01.850Z,49.19
2022-07-25T07:04:29.737Z,48.59
2022-07-25T07:06:57.462Z,48.24
2022-07-25T07:09:25.194Z,48.02
2022-07-25T07:11:52.931Z,46.41
2022-07-25T07:14:20.750Z,46.17
2022-07-25T07:16:48.490Z,46.34
2022-07-25T07:19:17.670Z,46.63
2022-07-25T07:21:45.331Z,46.56
2022-07-25T07:24:23.281Z,46.24
2022-07-25T07:26:43.294Z,45.89
2022-07-25T07:29:11.099Z,45.51
2022-07-25T07:31:38.887Z,44.75
2022-07-25T07:34:07.015Z,45.28
2022-07-25T07:36:34.800Z,45.20
2022-07-25T07:39:02.678Z,45.05
2022-07-25T07:41:30.547Z,44.35
2022-07-25T07:43:58.119Z,43.84
2022-07-25T07:46:25.763Z,44.22
2022-07-25T07:48:53.509Z,44.45
2022-07-25T07:51:21.036Z,44.35
2022-07-25T07:54:07.145Z,44.12
2022-07-25T07:56:34.955Z,44.02
2022-07-25T07:59:03.214Z,42.56
2022-07-25T08:01:31.383Z,43.26
2022-07-25T08:03:59.303Z,43.34
2022-07-25T08:06:27.486Z,43.16
2022-07-25T08:08:55.885Z,43.23
2022-07-25T08:11:23.554Z,42.90
2022-07-25T08:13:50.978Z,42.67
2022-07-25T08:16:18.882Z,42.30
2022-07-25T08:18:46.651Z,40.21
2022-07-25T08:21:14.187Z,40.83
2022-07-25T08:23:41.899Z,41.54
2022-07-25T08:26:09.449Z,41.26
2022-07-25T08:28:37.042Z,41.32
2022-07-25T08:31:04.819Z,41.45
2022-07-25T08:33:32.742Z,41.37
2022-07-25T08:36:00.771Z,41.09
2022-07-25T08:38:28.876Z,41.21
2022-07-25T08:40:59.216Z,41.36
2022-07-25T08:43:31.136Z,41.92
2022-07-25T08:46:01.982Z,42.42
2022-07-25T08:48:29.982Z,42.64
2022-07-25T08:50:58.073Z,42.48
2022-07-25T08:53:34.960Z,42.49
2022-07-25T08:55:55.994Z,42.50
2022-07-25T08:58:23.539Z,42.14
2022-07-25T09:00:51.467Z,40.48
2022-07-25T09:03:19.236Z,40.72
2022-07-25T09:05:47.137Z,39.42
2022-07-25T09:08:17.703Z,39.10
2022-07-25T09:10:50.448Z,37.81
2022-07-25T09:13:20.781Z,37.47
2022-07-25T09:15:56.215Z,37.60
2022-07-25T09:18:26.898Z,37.68
2022-07-25T09:20:58.644Z,36.86
2022-07-25T09:23:38.407Z,36.93
2022-07-25T09:26:10.193Z,36.57
2022-07-25T09:28:47.868Z,36.00
2022-07-25T09:31:18.623Z,35.90
2022-07-25T09:33:57.291Z,35.71
2022-07-25T09:36:25.213Z,34.37
2022-07-25T09:39:00.355Z,33.94
2022-07-25T09:41:34.765Z,33.65
2022-07-25T09:44:06.513Z,33.81
2022-07-25T09:46:34.414Z,33.92
2022-07-25T09:49:02.100Z,34.42
2022-07-25T09:51:30.540Z,34.07
2022-07-25T09:53:58.301Z,34.25
2022-07-25T09:56:25.812Z,34.07
2022-07-25T09:58:53.441Z,34.00
2022-07-25T10:01:29.020Z,33.22
2022-07-25T10:04:16.338Z,33.17
2022-07-25T10:06:52.053Z,33.27
2022-07-25T10:09:20.117Z,32.77
2022-07-25T10:12:13.473Z,32.38
2022-07-25T10:14:41.731Z,31.67
2022-07-25T10:17:13.203Z,31.42
2022-07-25T10:19:52.870Z,31.17
2022-07-25T10:22:29.441Z,30.45
2022-07-25T10:24:48.313Z,30.17
2022-07-25T10:27:24.452Z,29.26
2022-07-25T10:29:54.971Z,29.69
2022-07-25T10:32:26.125Z,28.34
2022-07-25T10:34:54.781Z,29.03
2022-07-25T10:37:28.638Z,27.89
2022-07-25T10:39:56.301Z,28.67
2022-07-25T10:42:29.310Z,28.60
2022-07-25T10:44:57.034Z,29.13
2022-07-25T10:47:27.749Z,30.49
2022-07-25T10:52:32.307Z,31.41
2022-07-25T10:55:01.441Z,31.86
2022-07-25T10:57:31.887Z,31.09
2022-07-25T11:00:08.546Z,31.00
2022-07-25T11:02:36.726Z,31.38
2022-07-25T11:05:06.067Z,31.16
2022-07-25T11:07:36.948Z,31.28
2022-07-25T11:10:06.410Z,31.17
2022-07-25T11:12:33.968Z,29.96
2022-07-25T11:15:05.506Z,29.92
2022-07-25T11:17:33.896Z,28.44
2022-07-25T11:20:08.624Z,29.31
2022-07-25T11:22:36.365Z,29.72
2022-07-25T11:25:12.279Z,29.61
2022-07-25T11:27:39.835Z,29.45
2022-07-25T11:30:13.759Z,29.23
2022-07-25T11:32:53.997Z,29.07
2022-07-25T11:35:25.813Z,28.47
2022-07-25T11:37:54.518Z,28.30
2022-07-25T11:40:22.922Z,28.25
2022-07-25T11:42:53.785Z,28.63
2022-07-25T11:45:25.421Z,28.89
2022-07-25T11:48:11.278Z,28.43
2022-07-25T11:50:43.469Z,26.95
2022-07-25T11:53:14.905Z,25.36
2022-07-25T11:55:44.605Z,26.84
2022-07-25T11:58:14.285Z,26.77
2022-07-25T12:00:46.053Z,26.51
2022-07-25T12:03:20.147Z,26.72
2022-07-25T12:05:48.964Z,26.71
2022-07-25T12:08:19.953Z,26.32
2022-07-25T12:10:51.175Z,26.22
2022-07-25T12:13:25.800Z,25.25
2022-07-25T12:15:56.341Z,25.27
2022-07-25T12:18:24.296Z,25.12
2022-07-25T12:20:52.712Z,26.14
2022-07-25T12:23:21.516Z,26.22
2022-07-25T12:25:50.275Z,26.02
2022-07-25T12:28:18.146Z,25.39
2022-07-25T12:30:51.617Z,25.64
2022-07-25T12:33:17.693Z,25.95
2022-07-25T12:35:45.319Z,25.96
2022-07-25T12:38:13.960Z,26.43
2022-07-25T12:40:41.724Z,26.90
2022-07-25T12:43:09.628Z,26.50
2022-07-25T12:45:37.480Z,25.61
2022-07-25T12:48:05.877Z,25.85
2022-07-25T12:50:33.482Z,26.09
2022-07-25T12:53:01.688Z,26.25
2022-07-25T12:55:29.201Z,26.22
2022-07-25T12:57:56.837Z,24.79
2022-07-25T13:00:24.826Z,24.42
2022-07-25T13:02:55.325Z,25.34
2022-07-25T13:05:25.165Z,24.98
2022-07-25T13:07:52.905Z,23.62
2022-07-25T13:10:20.808Z,23.95
2022-07-25T13:12:48.560Z,23.10
2022-07-25T13:15:18.016Z,23.39
2022-07-25T13:17:45.872Z,23.04
2022-07-25T13:20:15.176Z,23.58
2022-07-25T13:22:43.074Z,23.48
2022-07-25T13:25:10.852Z,23.27
2022-07-25T13:27:38.699Z,23.06
2022-07-25T13:30:07.976Z,23.32
2022-07-25T13:32:36.246Z,23.45
2022-07-25T13:35:04.446Z,23.81
2022-07-25T13:37:32.847Z,24.54
2022-07-25T13:40:00.492Z,24.99
2022-07-25T13:42:28.364Z,24.97
2022-07-25T13:44:55.718Z,25.17
2022-07-25T13:47:28.275Z,24.05
2022-07-25T13:49:53.836Z,24.96
2022-07-25T13:52:21.594Z,24.87
2022-07-25T13:54:49.300Z,24.87
2022-07-25T13:57:17.135Z,24.50
2022-07-25T13:59:44.798Z,24.07
2022-07-25T14:02:12.464Z,24.20
2022-07-25T14:04:40.586Z,24.08
2022-07-25T14:07:08.078Z,23.52
2022-07-25T14:09:35.818Z,24.15
2022-07-25T14:12:04.000Z,23.74
2022-07-25T14:14:31.609Z,24.33
2022-07-25T14:16:59.326Z,23.45
2022-07-25T14:19:27.130Z,23.79
2022-07-25T14:21:54.832Z,24.04
2022-07-25T14:24:22.597Z,24.63
2022-07-25T14:26:50.399Z,24.41
2022-07-25T14:29:18.173Z,24.50
2022-07-25T14:31:46.011Z,24.08
2022-07-25T14:34:15.302Z,23.74
2022-07-25T14:36:44.161Z,24.27
2022-07-25T14:39:11.865Z,24.30
2022-07-25T14:41:40.081Z,24.55
2022-07-25T14:44:08.954Z,24.30
2022-07-25T14:46:36.649Z,23.64
2022-07-25T14:49:05.206Z,24.06
2022-07-25T14:51:33.038Z,23.61
2022-07-25T14:54:00.767Z,24.25
2022-07-25T14:56:28.539Z,23.34
2022-07-25T14:58:56.778Z,23.48
2022-07-25T15:01:25.416Z,23.49
2022-07-25T15:03:55.810Z,23.86
2022-07-25T15:06:28.750Z,24.33
2022-07-25T15:08:54.108Z,24.58
2022-07-25T15:11:23.595Z,24.62
2022-07-25T15:13:52.468Z,24.78
2022-07-25T15:16:20.160Z,24.73
2022-07-25T15:19:14.371Z,24.71
2022-07-25T15:21:17.411Z,24.45
2022-07-25T15:23:45.094Z,23.77
2022-07-25T15:26:12.872Z,23.94
2022-07-25T15:28:40.539Z,23.59
2022-07-25T15:31:08.193Z,23.47
2022-07-25T15:33:36.437Z,22.65
2022-07-25T15:36:04.490Z,23.35
2022-07-25T15:38:33.603Z,22.71
2022-07-25T15:41:01.153Z,23.04
2022-07-25T15:43:28.735Z,23.58
2022-07-25T15:45:56.384Z,23.62
2022-07-25T15:48:24.346Z,23.47
2022-07-25T15:50:52.777Z,22.90
2022-07-25T15:53:20.753Z,23.31
2022-07-25T15:55:48.485Z,23.23
2022-07-25T15:58:16.418Z,23.28
2022-07-25T16:00:44.282Z,23.44
2022-07-25T16:03:13.312Z,23.60
2022-07-25T16:05:44.367Z,23.45
2022-07-25T16:08:12.215Z,23.93
2022-07-25T16:10:40.177Z,24.02
2022-07-25T16:13:07.848Z,23.85
2022-07-25T16:15:35.601Z,24.20
2022-07-25T16:18:03.525Z,24.32
2022-07-25T16:20:32.294Z,24.55
2022-07-25T16:23:01.177Z,24.56
2022-07-25T16:25:30.188Z,24.79
2022-07-25T16:27:59.481Z,24.80
2022-07-25T16:30:28.080Z,23.97
2022-07-25T16:32:55.945Z,24.08
2022-07-25T16:35:24.558Z,24.20
2022-07-25T16:37:52.348Z,23.79
2022-07-25T16:40:21.187Z,23.55
2022-07-25T16:42:50.062Z,22.82
2022-07-25T16:45:18.135Z,21.96
2022-07-25T16:47:46.648Z,22.07
2022-07-25T16:50:14.522Z,22.35
2022-07-25T16:52:42.211Z,22.15
2022-07-25T16:55:10.088Z,22.14
2022-07-25T16:57:38.364Z,22.06
2022-07-25T17:00:08.831Z,22.21
2022-07-25T17:02:36.919Z,22.09
2022-07-25T17:05:05.653Z,22.28
2022-07-25T17:07:34.247Z,22.36
2022-07-25T17:10:02.352Z,22.62
2022-07-25T17:12:30.212Z,22.77
2022-07-25T17:14:57.784Z,22.80
2022-07-25T17:17:25.424Z,23.00
2022-07-25T17:19:57.946Z,23.20
2022-07-25T17:22:22.638Z,23.28
2022-07-25T17:24:50.569Z,23.44
2022-07-25T17:27:18.011Z,23.65
2022-07-25T17:29:45.545Z,23.78
2022-07-25T17:32:13.222Z,23.94
2022-07-25T17:34:40.781Z,24.17
2022-07-25T17:37:08.493Z,24.41
2022-07-25T17:39:36.311Z,24.68
2022-07-25T17:42:05.967Z,24.94
2022-07-25T17:44:34.942Z,25.21
2022-07-25T17:47:03.590Z,25.51
2022-07-25T17:49:31.422Z,25.87
2022-07-25T17:51:59.104Z,26.13
2022-07-25T17:54:26.890Z,26.19
2022-07-25T17:56:54.443Z,26.31
2022-07-25T17:59:22.350Z,26.46
2022-07-25T18:01:50.099Z,26.77
2022-07-25T18:04:17.872Z,27.25
2022-07-25T18:06:45.696Z,27.91
2022-07-25T18:09:15.213Z,28.19
2022-07-25T18:11:43.138Z,28.66
2022-07-25T18:14:11.388Z,29.04
2022-07-25T18:16:40.990Z,29.27
2022-07-25T18:19:08.474Z,29.51
2022-07-25T18:21:36.115Z,29.77
2022-07-25T18:24:04.863Z,30.05
2022-07-25T18:26:34.123Z,30.26
2022-07-25T18:29:01.799Z,30.52
2022-07-25T18:31:29.781Z,30.73
2022-07-25T18:33:57.416Z,30.98
2022-07-25T18:36:25.432Z,31.25
2022-07-25T18:38:53.373Z,31.60
2022-07-25T18:41:30.643Z,31.80
2022-07-25T18:43:53.322Z,32.01
2022-07-25T18:46:21.167Z,32.21
2022-07-25T18:48:48.955Z,32.38
2022-07-25T18:51:16.985Z,32.68
2022-07-25T18:53:48.373Z,32.92
2022-07-25T18:56:15.353Z,33.20
2022-07-25T18:58:43.290Z,33.48
2022-07-25T19:01:11.664Z,33.70
2022-07-25T19:03:40.118Z,33.88
2022-07-25T19:06:09.175Z,34.11
2022-07-25T19:08:36.891Z,34.39
2022-07-25T19:11:05.278Z,34.66
2022-07-25T19:13:50.909Z,34.93
2022-07-25T19:16:03.947Z,35.01
2022-07-25T19:18:34.325Z,35.29
2022-07-25T19:21:02.438Z,35.41
2022-07-25T19:23:30.514Z,35.56
2022-07-25T19:25:58.360Z,35.71
2022-07-25T19:28:25.904Z,35.94
2022-07-25T19:30:53.716Z,36.35
2022-07-25T19:33:21.573Z,36.65
2022-07-25T19:35:49.220Z,36.88
2022-07-25T19:38:16.889Z,37.08
2022-07-25T19:40:45.968Z,37.26
2022-07-25T19:43:13.702Z,37.31
2022-07-25T19:45:41.545Z,37.39
2022-07-25T19:48:09.073Z,37.48
2022-07-25T19:50:36.925Z,37.57
2022-07-25T19:53:04.541Z,37.88
2022-07-25T19:55:32.429Z,38.04
2022-07-25T19:57:59.935Z,38.41
2022-07-25T20:00:27.853Z,38.72
2022-07-25T20:02:55.636Z,38.99
2022-07-25T20:05:23.410Z,39.30
2022-07-25T20:07:51.520Z,39.54
2022-07-25T20:10:19.204Z,39.84
2022-07-25T20:12:46.876Z,40.15
2022-07-25T20:15:14.410Z,40.25
2022-07-25T20:17:42.601Z,40.53
2022-07-25T20:20:11.011Z,40.77
2022-07-25T20:22:38.877Z,40.85
2022-07-25T20:25:10.610Z,41.00
2022-07-25T20:27:38.488Z,41.19
2022-07-25T20:30:08.889Z,41.31
2022-07-25T20:32:37.244Z,41.49
2022-07-25T20:35:06.375Z,41.53
2022-07-25T20:37:34.307Z,41.65
2022-07-25T20:40:05.492Z,41.68
2022-07-25T20:42:33.023Z,41.84
2022-07-25T20:45:00.726Z,41.90
2022-07-25T20:47:28.392Z,41.91
2022-07-25T20:49:56.014Z,41.91
2022-07-25T20:52:23.936Z,42.03
2022-07-25T20:54:51.628Z,42.17
2022-07-25T20:57:19.337Z,42.32
2022-07-25T20:59:46.962Z,42.41
2022-07-25T21:02:16.654Z,42.55
2022-07-25T21:04:46.844Z,42.59
2022-07-25T21:07:17.313Z,42.72
2022-07-25T21:09:45.632Z,42.84
2022-07-25T21:12:13.322Z,42.92
2022-07-25T21:14:40.869Z,43.16
2022-07-25T21:17:09.307Z,43.27
2022-07-25T21:19:37.158Z,43.27
2022-07-25T21:22:05.280Z,43.46
2022-07-25T21:24:32.879Z,43.49
2022-07-25T21:27:01.318Z,43.63
2022-07-25T21:29:29.315Z,43.70
2022-07-25T21:31:57.214Z,43.87
2022-07-25T21:34:25.031Z,43.90
2022-07-25T21:36:52.628Z,43.96
2022-07-25T21:39:20.081Z,44.11
2022-07-25T21:41:47.827Z,44.22
2022-07-25T21:44:17.604Z,44.25
2022-07-25T21:46:45.596Z,44.35
2022-07-25T21:49:40.847Z,44.44
2022-07-25T21:52:01.221Z,44.50
2022-07-25T21:54:28.847Z,44.64
2022-07-25T21:56:56.652Z,44.82
2022-07-25T21:59:24.333Z,44.96
2022-07-25T22:01:51.988Z,45.08
2022-07-25T22:04:19.936Z,45.23
2022-07-25T22:06:47.844Z,45.26
2022-07-25T22:09:15.689Z,45.40
2022-07-25T22:11:46.530Z,45.61
2022-07-25T22:14:15.477Z,45.81
2022-07-25T22:16:43.587Z,45.88
2022-07-25T22:19:12.145Z,45.99
2022-07-25T22:21:40.872Z,46.25
2022-07-25T22:24:09.789Z,46.47
2022-07-25T22:26:37.736Z,46.71
2022-07-25T22:29:06.078Z,46.78
2022-07-25T22:31:34.015Z,47.00
2022-07-25T22:34:01.948Z,47.12
2022-07-25T22:36:29.717Z,47.35
2022-07-25T22:38:57.212Z,47.30
2022-07-25T22:41:24.960Z,47.31
2022-07-25T22:43:58.271Z,47.34
2022-07-25T22:46:22.938Z,47.34
2022-07-25T22:48:50.771Z,47.48
2022-07-25T22:51:18.412Z,47.47
2022-07-25T22:53:46.136Z,47.87
2022-07-25T22:56:14.034Z,47.93
2022-07-25T22:58:42.359Z,47.99
2022-07-25T23:01:10.411Z,48.42
2022-07-25T23:03:38.330Z,48.38
2022-07-25T23:06:06.265Z,48.55
2022-07-25T23:08:33.955Z,48.72
2022-07-25T23:11:03.181Z,48.81
2022-07-25T23:13:31.702Z,48.96
2022-07-25T23:15:59.394Z,48.95
2022-07-25T23:18:27.120Z,49.10
2022-07-25T23:20:54.963Z,49.32
2022-07-25T23:23:22.575Z,49.66
2022-07-25T23:25:50.617Z,49.70
2022-07-25T23:28:18.435Z,49.94
2022-07-25T23:30:46.130Z,50.10
2022-07-25T23:33:13.679Z,50.05
2022-07-25T23:35:41.755Z,50.23
2022-07-25T23:38:09.453Z,50.28
2022-07-25T23:40:37.094Z,50.34
2022-07-25T23:43:04.829Z,50.32
2022-07-25T23:45:34.318Z,50.44
2022-07-25T23:48:03.842Z,50.55
2022-07-25T23:50:31.684Z,50.78
2022-07-25T23:52:59.290Z,50.79
2022-07-25T23:55:27.091Z,51.05
2022-07-25T23:57:54.920Z,51.02
